createdAt,value
2022-12-17T00:00:13.906Z,101894.94
2022-12-17T00:02:59.229Z,101898.44
2022-12-17T00:05:44.245Z,101898.44
2022-12-17T00:08:30.609Z,101906.31
2022-12-17T00:11:17.380Z,101905.41
2022-12-17T00:14:02.084Z,101912.44
2022-12-17T00:16:57.630Z,101914.19
2022-12-17T00:19:42.295Z,101909.81
2022-12-17T00:22:26.888Z,101911.56
2022-12-17T00:25:11.636Z,101916.78
2022-12-17T00:27:56.487Z,101922.91
2022-12-17T00:30:41.587Z,101922.91
2022-12-17T00:33:26.492Z,101920.28
2022-12-17T00:36:12.484Z,101927.31
2022-12-17T00:38:58.179Z,101927.28
2022-12-17T00:41:44.867Z,101936.03
2022-12-17T00:44:29.871Z,101935.16
2022-12-17T00:47:14.896Z,101942.16
2022-12-17T00:49:59.866Z,101941.25
2022-12-17T00:52:44.923Z,101947.41
2022-12-17T00:55:29.627Z,101949.16
2022-12-17T00:58:15.898Z,101953.53
2022-12-17T01:01:12.385Z,101949.19
2022-12-17T01:03:57.194Z,101946.53
2022-12-17T01:06:41.866Z,101951.78
2022-12-17T01:09:26.584Z,101950.91
2022-12-17T01:12:11.492Z,101947.41
2022-12-17T01:14:57.169Z,101946.53
2022-12-17T01:17:42.099Z,101946.53
2022-12-17T01:20:26.960Z,101949.16
2022-12-17T01:23:11.744Z,101943.94
2022-12-17T01:25:56.494Z,101957.91
2022-12-17T01:28:45.082Z,101952.66
2022-12-17T01:31:34.613Z,101956.16
2022-12-17T01:34:20.358Z,101964.91
2022-12-17T01:37:05.657Z,101971.91
2022-12-17T01:39:50.404Z,101971.91
2022-12-17T01:42:35.070Z,101965.78
2022-12-17T01:45:21.227Z,101960.53
2022-12-17T01:48:11.597Z,101966.66
2022-12-17T01:51:00.880Z,101966.63
2022-12-17T01:53:53.299Z,101970.16
2022-12-17T01:56:38.149Z,101969.25
2022-12-17T01:59:26.197Z,101974.50
2022-12-17T02:02:11.324Z,101964.03
2022-12-17T02:04:57.459Z,101975.38
2022-12-17T02:07:48.468Z,101974.50
2022-12-17T02:10:41.641Z,101985.03
2022-12-17T02:13:34.617Z,101978.00
2022-12-17T02:16:27.828Z,101988.50
2022-12-17T02:19:25.435Z,101987.56
2022-12-17T02:22:15.914Z,101993.72
2022-12-17T02:25:14.172Z,101992.84
2022-12-17T02:27:59.786Z,101997.19
2022-12-17T02:30:45.005Z,101995.47
2022-12-17T02:33:30.570Z,101999.84
2022-12-17T02:36:24.646Z,101998.97
2022-12-17T02:39:10.520Z,102007.69
2022-12-17T02:42:05.196Z,102001.59
2022-12-17T02:44:52.453Z,102003.34
2022-12-17T02:47:38.968Z,101992.84
2022-12-17T02:50:25.164Z,101998.97
2022-12-17T02:53:12.054Z,101992.84
2022-12-17T02:55:56.784Z,102000.75
2022-12-17T02:58:41.817Z,101999.81
2022-12-17T03:01:27.281Z,101994.59
2022-12-17T03:04:13.160Z,102006.00
2022-12-17T03:06:57.811Z,102014.72
2022-12-17T03:09:42.582Z,102008.59
2022-12-17T03:12:27.629Z,102009.47
2022-12-17T03:15:12.436Z,102014.72
2022-12-17T03:17:57.108Z,102015.59
2022-12-17T03:20:41.855Z,102021.72
2022-12-17T03:23:29.245Z,102021.66
2022-12-17T03:26:19.751Z,102028.69
2022-12-17T03:29:04.824Z,102025.16
2022-12-17T03:31:51.071Z,102034.81
2022-12-17T03:34:36.369Z,102030.41
2022-12-17T03:37:21.094Z,102035.63
2022-12-17T03:40:05.746Z,102029.50
2022-12-17T03:42:50.621Z,102029.53
2022-12-17T03:45:35.466Z,102033.88
2022-12-17T03:48:23.639Z,102034.78
2022-12-17T03:51:10.282Z,102040.88
2022-12-17T03:53:55.139Z,102033.88
2022-12-17T03:56:39.967Z,102036.50
2022-12-17T03:59:24.746Z,102046.13
2022-12-17T04:02:09.659Z,102040.84
2022-12-17T04:04:54.714Z,102039.97
2022-12-17T04:07:39.434Z,102037.34
2022-12-17T04:10:24.695Z,102032.97
2022-12-17T04:13:09.864Z,102039.00
2022-12-17T04:15:54.680Z,102037.25
2022-12-17T04:18:39.808Z,102030.25
2022-12-17T04:21:24.421Z,102039.88
2022-12-17T04:24:09.706Z,102044.25
2022-12-17T04:26:54.528Z,102053.84
2022-12-17T04:29:41.454Z,102053.00
2022-12-17T04:32:27.545Z,102054.72
2022-12-17T04:35:15.084Z,102064.34
2022-12-17T04:38:00.006Z,102077.44
2022-12-17T04:40:44.673Z,102082.66
2022-12-17T04:43:31.806Z,102076.56
2022-12-17T04:46:16.972Z,102085.28
2022-12-17T04:49:02.086Z,102083.56
2022-12-17T04:51:46.740Z,102081.84
2022-12-17T04:54:31.420Z,102084.47
2022-12-17T04:57:16.248Z,102081.88
2022-12-17T05:00:00.897Z,102083.63
2022-12-17T05:02:45.744Z,102085.34
2022-12-17T05:05:30.789Z,102080.16
2022-12-17T05:08:15.835Z,102087.13
2022-12-17T05:11:01.697Z,102085.34
2022-12-17T05:13:46.362Z,102083.63
2022-12-17T05:16:31.638Z,102086.25
2022-12-17T05:19:27.525Z,102090.59
2022-12-17T05:22:12.274Z,102093.25
2022-12-17T05:24:57.082Z,102089.78
2022-12-17T05:27:49.509Z,102088.91
2022-12-17T05:30:34.208Z,102098.50
2022-12-17T05:33:20.474Z,102103.69
2022-12-17T05:36:12.777Z,102098.50
2022-12-17T05:38:57.482Z,102099.38
2022-12-17T05:41:42.245Z,102095.88
2022-12-17T05:44:27.001Z,102099.34
2022-12-17T05:47:11.687Z,102095.84
2022-12-17T05:49:56.585Z,102102.84
2022-12-17T05:52:41.715Z,102111.59
2022-12-17T05:55:26.879Z,102107.25
2022-12-17T05:58:19.583Z,102103.72
2022-12-17T06:01:04.342Z,102109.84
2022-12-17T06:03:49.035Z,102122.06
2022-12-17T06:06:34.023Z,102125.59
2022-12-17T06:09:19.454Z,102131.72
2022-12-17T06:12:04.204Z,102129.97
2022-12-17T06:14:48.988Z,102122.97
2022-12-17T06:17:33.653Z,102124.75
2022-12-17T06:20:18.526Z,102120.41
2022-12-17T06:23:03.288Z,102130.00
2022-12-17T06:25:48.078Z,102130.88
2022-12-17T06:28:32.727Z,102137.88
2022-12-17T06:31:17.512Z,102133.50
2022-12-17T06:34:02.571Z,102147.47
2022-12-17T06:36:47.220Z,102144.88
2022-12-17T06:39:31.923Z,102147.47
2022-12-17T06:42:16.775Z,102144.81
2022-12-17T06:45:01.507Z,102152.66
2022-12-17T06:47:46.101Z,102150.00
2022-12-17T06:50:30.882Z,102159.66
2022-12-17T06:53:20.663Z,102164.03
2022-12-17T06:56:05.352Z,102169.31
2022-12-17T06:58:50.159Z,102163.19
2022-12-17T07:01:34.934Z,102165.78
2022-12-17T07:04:20.118Z,102169.28
2022-12-17T07:07:04.884Z,102167.53
2022-12-17T07:09:49.725Z,102167.56
2022-12-17T07:12:34.304Z,102169.25
2022-12-17T07:15:19.024Z,102168.34
2022-12-17T07:18:14.842Z,102182.28
2022-12-17T07:20:59.649Z,102183.09
2022-12-17T07:23:44.376Z,102188.31
2022-12-17T07:26:29.069Z,102187.47
2022-12-17T07:29:13.795Z,102184.88
2022-12-17T07:31:58.719Z,102194.47
2022-12-17T07:34:43.528Z,102194.50
2022-12-17T07:37:28.251Z,102193.66
2022-12-17T07:40:13.014Z,102193.66
2022-12-17T07:43:00.588Z,102206.78
2022-12-17T07:45:45.386Z,102206.81
2022-12-17T07:48:30.568Z,102205.09
2022-12-17T07:51:15.885Z,102208.56
2022-12-17T07:54:02.011Z,102210.38
2022-12-17T07:56:46.665Z,102211.22
2022-12-17T07:59:31.415Z,102215.56
2022-12-17T08:02:16.327Z,102219.13
2022-12-17T08:05:01.492Z,102227.84
2022-12-17T08:07:46.360Z,102226.13
2022-12-17T08:10:31.256Z,102229.63
2022-12-17T08:13:22.558Z,102237.44
2022-12-17T08:16:07.921Z,102245.38
2022-12-17T08:18:52.911Z,102248.84
2022-12-17T08:21:37.694Z,102248.84
2022-12-17T08:24:22.978Z,102250.63
2022-12-17T08:27:08.257Z,102250.66
2022-12-17T08:29:52.905Z,102247.09
2022-12-17T08:32:37.652Z,102247.06
2022-12-17T08:35:22.835Z,102242.75
2022-12-17T08:38:07.586Z,102260.19
2022-12-17T08:40:52.261Z,102271.50
2022-12-17T08:43:37.262Z,102267.03
2022-12-17T08:46:42.510Z,102263.47
2022-12-17T08:49:27.380Z,102272.28
2022-12-17T08:52:12.154Z,102269.59
2022-12-17T08:54:57.077Z,102270.47
2022-12-17T08:57:41.760Z,102276.72
2022-12-17T09:00:27.545Z,102277.59
2022-12-17T09:03:16.815Z,102283.69
2022-12-17T09:06:02.076Z,102280.19
2022-12-17T09:08:46.822Z,102274.94
2022-12-17T09:11:32.150Z,102280.22
2022-12-17T09:14:16.902Z,102282.78
2022-12-17T09:17:01.681Z,102285.44
2022-12-17T09:19:46.898Z,102290.75
2022-12-17T09:22:31.720Z,102285.41
2022-12-17T09:25:16.449Z,102283.69
2022-12-17T09:28:01.693Z,102283.75
2022-12-17T09:30:46.464Z,102284.66
2022-12-17T09:33:36.112Z,102287.34
2022-12-17T09:36:23.047Z,102298.69
2022-12-17T09:39:08.247Z,102290.03
2022-12-17T09:42:06.392Z,102294.41
2022-12-17T09:44:57.249Z,102296.16
2022-12-17T09:47:53.622Z,102303.97
2022-12-17T09:50:39.002Z,102298.81
2022-12-17T09:53:36.189Z,102310.16
2022-12-17T09:56:22.451Z,102313.72
2022-12-17T09:59:07.164Z,102315.44
2022-12-17T10:01:53.627Z,102311.13
2022-12-17T10:04:53.919Z,102314.66
2022-12-17T10:07:42.686Z,102312.00
2022-12-17T10:10:39.223Z,102306.69
2022-12-17T10:13:36.696Z,102313.56
2022-12-17T10:16:48.205Z,102312.75
2022-12-17T10:19:40.744Z,102311.94
2022-12-17T10:22:32.143Z,102317.25
2022-12-17T10:25:21.592Z,102313.84
2022-12-17T10:28:06.305Z,102317.41
2022-12-17T10:30:51.704Z,102313.03
2022-12-17T10:33:39.378Z,102312.19
2022-12-17T10:36:38.893Z,102322.63
2022-12-17T10:39:25.212Z,102322.66
2022-12-17T10:42:09.912Z,102329.66
2022-12-17T10:44:56.137Z,102327.94
2022-12-17T10:47:46.196Z,102323.63
2022-12-17T10:50:37.050Z,102326.19
2022-12-17T10:53:34.092Z,102331.50
2022-12-17T10:56:27.291Z,102325.38
2022-12-17T10:59:13.066Z,102334.13
2022-12-17T11:02:00.248Z,102339.34
2022-12-17T11:04:50.799Z,102336.75
2022-12-17T11:07:44.077Z,102334.09
2022-12-17T11:10:36.822Z,102346.31
2022-12-17T11:13:27.517Z,102348.09
2022-12-17T11:16:15.720Z,102344.59
2022-12-17T11:19:21.163Z,102354.16
2022-12-17T11:22:09.075Z,102340.94
2022-12-17T11:25:02.535Z,102343.59
2022-12-17T11:27:52.859Z,102347.03
2022-12-17T11:30:38.171Z,102346.16
2022-12-17T11:34:01.769Z,102350.44
2022-12-17T11:36:59.193Z,102345.28
2022-12-17T11:40:02.679Z,102344.44
2022-12-17T11:42:55.533Z,102347.03
2022-12-17T11:45:55.825Z,102341.75
2022-12-17T11:48:52.900Z,102344.22
2022-12-17T11:51:48.852Z,102345.19
2022-12-17T11:54:43.240Z,102338.34
2022-12-17T11:57:42.528Z,102344.38
2022-12-17T12:00:41.512Z,102343.63
2022-12-17T12:03:45.307Z,102345.38
2022-12-17T12:06:40.633Z,102343.53
2022-12-17T12:09:49.210Z,102345.41
2022-12-17T12:12:39.012Z,102345.50
2022-12-17T12:15:32.839Z,102340.22
2022-12-17T12:18:45.046Z,102340.25
2022-12-17T12:21:39.927Z,102339.31
2022-12-17T12:25:08.516Z,102334.16
2022-12-17T12:28:29.444Z,102328.03
2022-12-17T12:31:35.656Z,102326.19
2022-12-17T12:34:25.394Z,102324.38
2022-12-17T12:37:11.634Z,102316.63
2022-12-17T12:40:02.955Z,102324.53
2022-12-17T12:42:57.163Z,102326.25
2022-12-17T12:45:54.050Z,102328.81
2022-12-17T12:48:50.864Z,102326.16
2022-12-17T12:51:41.216Z,102323.59
2022-12-17T12:55:04.614Z,102323.63
2022-12-17T12:57:55.089Z,102317.50
2022-12-17T13:00:47.994Z,102325.28
2022-12-17T13:03:45.356Z,102323.41
2022-12-17T13:06:42.729Z,102323.50
2022-12-17T13:09:15.125Z,102324.41
2022-12-17T13:11:43.860Z,102316.53
2022-12-17T13:14:16.290Z,102315.69
2022-12-17T13:16:48.544Z,102317.44
2022-12-17T13:19:31.646Z,102316.38
2022-12-17T13:22:12.333Z,102319.47
2022-12-17T13:24:38.650Z,102309.66
2022-12-17T13:27:05.214Z,102304.41
2022-12-17T13:29:34.563Z,102305.13
2022-12-17T13:32:01.021Z,102303.28
2022-12-17T13:34:45.353Z,102302.31
2022-12-17T13:37:31.913Z,102310.16
2022-12-17T13:40:22.599Z,102306.59
2022-12-17T13:42:49.108Z,102311.72
2022-12-17T13:45:17.124Z,102311.56
2022-12-17T13:47:43.493Z,102316.75
2022-12-17T13:50:38.862Z,102308.63
2022-12-17T13:53:10.324Z,102308.47
2022-12-17T13:55:37.927Z,102305.94
2022-12-17T13:58:04.232Z,102298.91
2022-12-17T14:00:32.316Z,102311.09
2022-12-17T14:03:10.479Z,102313.69
2022-12-17T14:05:42.181Z,102313.69
2022-12-17T14:08:09.235Z,102311.22
2022-12-17T14:10:37.794Z,102314.69
2022-12-17T14:13:08.568Z,102316.53
2022-12-17T14:15:35.154Z,102317.47
2022-12-17T14:18:02.810Z,102319.28
2022-12-17T14:20:31.022Z,102325.31
2022-12-17T14:23:03.061Z,102326.19
2022-12-17T14:25:35.764Z,102325.25
2022-12-17T14:28:21.010Z,102327.00
2022-12-17T14:31:24.521Z,102325.28
2022-12-17T14:33:36.741Z,102325.25
2022-12-17T14:36:25.779Z,102320.00
2022-12-17T14:39:16.540Z,102320.84
2022-12-17T14:42:01.202Z,102322.63
2022-12-17T14:44:29.557Z,102328.56
2022-12-17T14:47:21.986Z,102334.63
2022-12-17T14:49:59.149Z,102330.06
2022-12-17T14:52:43.835Z,102325.56
2022-12-17T14:55:27.119Z,102336.84
2022-12-17T14:58:05.689Z,102334.28
2022-12-17T15:00:32.196Z,102342.03
2022-12-17T15:02:58.639Z,102335.00
2022-12-17T15:05:25.220Z,102328.91
2022-12-17T15:07:51.854Z,102331.41
2022-12-17T15:10:20.120Z,102326.97
2022-12-17T15:12:47.737Z,102321.72
2022-12-17T15:15:15.630Z,102326.13
2022-12-17T15:17:42.164Z,102323.44
2022-12-17T15:20:19.040Z,102324.22
2022-12-17T15:22:46.434Z,102322.41
2022-12-17T15:25:14.874Z,102324.94
2022-12-17T15:27:41.530Z,102330.16
2022-12-17T15:30:13.130Z,102341.41
2022-12-17T15:32:39.968Z,102346.63
2022-12-17T15:35:07.131Z,102339.66
2022-12-17T15:37:33.470Z,102356.25
2022-12-17T15:39:59.819Z,102351.81
2022-12-17T15:42:44.721Z,102358.88
2022-12-17T15:45:12.324Z,102360.50
2022-12-17T15:47:38.649Z,102353.41
2022-12-17T15:50:05.373Z,102351.53
2022-12-17T15:52:31.738Z,102362.88
2022-12-17T15:54:58.107Z,102361.00
2022-12-17T15:57:24.716Z,102359.22
2022-12-17T15:59:52.029Z,102364.41
2022-12-17T16:02:18.691Z,102361.75
2022-12-17T16:04:45.352Z,102364.19
2022-12-17T16:07:11.690Z,102362.56
2022-12-17T16:09:37.987Z,102365.19
2022-12-17T16:12:04.545Z,102365.13
2022-12-17T16:14:30.919Z,102382.38
2022-12-17T16:16:57.236Z,102372.69
2022-12-17T16:19:23.568Z,102383.97
2022-12-17T16:21:50.031Z,102372.50
2022-12-17T16:24:16.418Z,102376.72
2022-12-17T16:26:42.754Z,102385.41
2022-12-17T16:29:09.091Z,102383.56
2022-12-17T16:31:35.570Z,102389.59
2022-12-17T16:34:02.100Z,102385.19
2022-12-17T16:36:28.647Z,102393.69
2022-12-17T16:38:55.005Z,102398.06
2022-12-17T16:41:22.141Z,102402.31
2022-12-17T16:43:48.744Z,102401.38
2022-12-17T16:46:36.093Z,102396.91
2022-12-17T16:49:06.634Z,102402.97
2022-12-17T16:51:33.920Z,102403.72
2022-12-17T16:54:08.299Z,102403.72
2022-12-17T16:56:40.033Z,102402.75
2022-12-17T16:59:09.926Z,102406.88
2022-12-17T17:01:37.425Z,102412.13
2022-12-17T17:04:05.683Z,102415.53
2022-12-17T17:06:34.100Z,102417.22
2022-12-17T17:09:04.411Z,102407.66
2022-12-17T17:11:31.100Z,102407.56
2022-12-17T17:13:57.699Z,102414.44
2022-12-17T17:16:25.006Z,102415.19
2022-12-17T17:18:52.919Z,102396.78
2022-12-17T17:21:19.195Z,102408.88
2022-12-17T17:23:50.890Z,102407.94
2022-12-17T17:26:17.647Z,102401.66
2022-12-17T17:28:45.504Z,102409.44
2022-12-17T17:31:13.821Z,102412.00
2022-12-17T17:33:46.595Z,102421.47
2022-12-17T17:36:25.285Z,102413.50
2022-12-17T17:38:53.809Z,102411.63
2022-12-17T17:41:23.262Z,102420.13
2022-12-17T17:43:58.512Z,102420.28
2022-12-17T17:46:26.425Z,102423.63
2022-12-17T17:48:57.011Z,102428.94
2022-12-17T17:51:59.779Z,102429.78
2022-12-17T17:54:14.501Z,102428.94
2022-12-17T17:56:42.668Z,102421.94
2022-12-17T17:59:11.934Z,102416.59
2022-12-17T18:01:42.061Z,102413.06
2022-12-17T18:04:15.934Z,102409.59
2022-12-17T18:07:02.615Z,102416.47
2022-12-17T18:09:30.091Z,102418.09
2022-12-17T18:11:56.695Z,102419.78
2022-12-17T18:14:23.091Z,102422.50
2022-12-17T18:16:49.465Z,102432.00
2022-12-17T18:19:20.785Z,102433.53
2022-12-17T18:21:48.095Z,102430.75
2022-12-17T18:24:16.007Z,102433.25
2022-12-17T18:26:43.918Z,102432.22
2022-12-17T18:29:12.232Z,102434.69
2022-12-17T18:31:39.031Z,102440.69
2022-12-17T18:34:06.406Z,102429.41
2022-12-17T18:36:37.182Z,102438.00
2022-12-17T18:39:10.626Z,102442.22
2022-12-17T18:41:56.262Z,102444.84
2022-12-17T18:44:23.123Z,102442.16
2022-12-17T18:46:49.779Z,102450.84
2022-12-17T18:49:19.169Z,102449.97
2022-12-17T18:51:47.653Z,102448.09
2022-12-17T18:54:17.370Z,102446.16
2022-12-17T18:57:01.729Z,102443.25
2022-12-17T18:59:30.458Z,102453.75
2022-12-17T19:01:57.650Z,102452.81
2022-12-17T19:04:25.013Z,102451.81
2022-12-17T19:06:53.320Z,102458.09
2022-12-17T19:09:25.534Z,102448.41
2022-12-17T19:11:53.465Z,102456.16
2022-12-17T19:14:21.989Z,102458.47
2022-12-17T19:16:52.965Z,102453.47
2022-12-17T19:19:20.039Z,102456.03
2022-12-17T19:21:46.394Z,102452.47
2022-12-17T19:24:15.361Z,102464.75
2022-12-17T19:26:42.492Z,102455.09
2022-12-17T19:29:10.484Z,102454.22
2022-12-17T19:31:37.601Z,102446.41
2022-12-17T19:34:06.841Z,102444.66
2022-12-17T19:36:35.818Z,102453.25
2022-12-17T19:39:06.039Z,102456.88
2022-12-17T19:41:32.805Z,102455.88
2022-12-17T19:44:02.091Z,102460.19
2022-12-17T19:46:30.476Z,102461.19
2022-12-17T19:48:57.362Z,102468.16
2022-12-17T19:51:27.521Z,102470.84
2022-12-17T19:53:54.857Z,102473.34
2022-12-17T19:56:29.701Z,102474.22
2022-12-17T19:59:00.714Z,102477.78
2022-12-17T20:01:30.309Z,102477.59
2022-12-17T20:03:57.376Z,102475.03
2022-12-17T20:06:27.500Z,102484.69
2022-12-17T20:08:54.080Z,102486.41
2022-12-17T20:11:33.271Z,102477.69
2022-12-17T20:14:12.990Z,102487.16
2022-12-17T20:16:42.059Z,102489.75
2022-12-17T20:19:11.982Z,102489.56
2022-12-17T20:21:38.822Z,102486.06
2022-12-17T20:24:06.020Z,102492.06
2022-12-17T20:26:32.480Z,102491.28
2022-12-17T20:28:59.237Z,102487.66
2022-12-17T20:31:27.024Z,102483.00
2022-12-17T20:33:53.433Z,102487.34
2022-12-17T20:36:21.386Z,102485.13
2022-12-17T20:38:47.771Z,102489.34
2022-12-17T20:41:20.420Z,102486.03
2022-12-17T20:43:47.783Z,102481.69
2022-12-17T20:46:14.652Z,102482.38
2022-12-17T20:48:43.374Z,102483.44
2022-12-17T20:51:20.843Z,102488.84
2022-12-17T20:53:47.697Z,102487.38
2022-12-17T20:56:18.236Z,102493.56
2022-12-17T20:58:45.433Z,102499.72
2022-12-17T21:01:18.440Z,102500.59
2022-12-17T21:03:45.791Z,102492.63
2022-12-17T21:06:14.951Z,102496.84
2022-12-17T21:08:49.166Z,102497.59
2022-12-17T21:11:18.229Z,102493.19
2022-12-17T21:13:44.811Z,102492.25
2022-12-17T21:16:23.126Z,102487.00
2022-12-17T21:18:49.548Z,102494.94
2022-12-17T21:21:19.859Z,102492.41
2022-12-17T21:23:47.444Z,102493.91
2022-12-17T21:26:22.538Z,102492.53
2022-12-17T21:28:51.560Z,102491.50
2022-12-17T21:31:36.250Z,102497.28
2022-12-17T21:34:04.772Z,102492.91
2022-12-17T21:36:33.670Z,102505.91
2022-12-17T21:39:00.741Z,102503.31
2022-12-17T21:41:32.263Z,102504.03
2022-12-17T21:44:00.762Z,102504.19
2022-12-17T21:46:28.827Z,102511.09
2022-12-17T21:48:57.633Z,102508.59
2022-12-17T21:51:24.713Z,102510.22
2022-12-17T21:53:56.283Z,102504.97
2022-12-17T21:56:23.359Z,102505.09
2022-12-17T21:58:50.476Z,102513.69
2022-12-17T22:01:24.887Z,102514.41
2022-12-17T22:03:53.880Z,102511.94
2022-12-17T22:06:25.809Z,102508.59
2022-12-17T22:09:04.169Z,102504.81
2022-12-17T22:11:36.414Z,102508.19
2022-12-17T22:14:08.248Z,102500.53
2022-12-17T22:16:41.994Z,102503.00
2022-12-17T22:19:10.507Z,102501.34
2022-12-17T22:21:39.140Z,102507.56
2022-12-17T22:24:06.695Z,102508.56
2022-12-17T22:26:36.723Z,102507.69
2022-12-17T22:29:03.422Z,102507.94
2022-12-17T22:31:48.529Z,102512.13
2022-12-17T22:35:25.024Z,102513.84
2022-12-17T22:38:21.582Z,102511.34
2022-12-17T22:44:31.381Z,102516.69
2022-12-17T22:44:41.150Z,102515.09
2022-12-17T22:45:40.704Z,102520.41
2022-12-17T22:48:12.597Z,102516.91
2022-12-17T22:50:43.108Z,102520.25
2022-12-17T22:53:26.137Z,102516.69
2022-12-17T22:55:52.731Z,102524.19
2022-12-17T22:58:20.064Z,102521.50
2022-12-17T23:00:46.454Z,102539.78
2022-12-17T23:03:12.917Z,102533.88
2022-12-17T23:05:39.360Z,102531.13
2022-12-17T23:08:05.866Z,102532.16
2022-12-17T23:10:32.283Z,102521.59
2022-12-17T23:12:58.720Z,102534.66
2022-12-17T23:15:32.975Z,102541.50
2022-12-17T23:18:01.354Z,102533.72
2022-12-17T23:20:30.136Z,102543.00
2022-12-17T23:22:56.858Z,102545.56
2022-12-17T23:25:23.935Z,102540.25
2022-12-17T23:27:51.083Z,102534.16
2022-12-17T23:30:18.735Z,102531.47
2022-12-17T23:32:45.556Z,102527.13
2022-12-17T23:35:12.351Z,102527.94
2022-12-17T23:37:40.328Z,102520.06
2022-12-17T23:40:11.389Z,102520.88
2022-12-17T23:42:38.131Z,102525.97
2022-12-17T23:45:05.970Z,102523.03
2022-12-17T23:47:32.362Z,102521.56
2022-12-17T23:49:58.930Z,102525.25
2022-12-17T23:52:25.325Z,102529.47
2022-12-17T23:54:51.725Z,102525.84
2022-12-17T23:57:18.040Z,102534.50
2022-12-17T23:59:44.410Z,102531.00
